sensor_id;sensor_type;location;lat;lon;timestamp;pressure;altitude;pressure_sealevel;temperature;humidity
35577;BME280;21680;52.400;16.920;2023-03-16T00:01:10;101093.43;;;0.24;82.66
35577;BME280;21680;52.400;16.920;2023-03-16T00:03:36;101097.29;;;0.21;82.68
35577;BME280;21680;52.400;16.920;2023-03-16T00:06:01;101102.90;;;0.20;82.69
35577;BME280;21680;52.400;16.920;2023-03-16T00:08:26;101103.59;;;0.17;82.71
35577;BME280;21680;52.400;16.920;2023-03-16T00:10:52;101112.00;;;0.14;82.74
35577;BME280;21680;52.400;16.920;2023-03-16T00:13:20;101115.50;;;0.13;82.80
35577;BME280;21680;52.400;16.920;2023-03-16T00:15:54;101119.54;;;0.11;82.78
35577;BME280;21680;52.400;16.920;2023-03-16T00:18:21;101116.71;;;0.10;82.76
35577;BME280;21680;52.400;16.920;2023-03-16T00:20:51;101124.77;;;0.07;82.71
35577;BME280;21680;52.400;16.920;2023-03-16T00:23:19;101120.90;;;0.05;82.75
35577;BME280;21680;52.400;16.920;2023-03-16T00:25:52;101119.66;;;0.02;82.84
35577;BME280;21680;52.400;16.920;2023-03-16T00:28:17;101117.73;;;-0.02;82.78
35577;BME280;21680;52.400;16.920;2023-03-16T00:30:43;101119.13;;;-0.03;82.83
35577;BME280;21680;52.400;16.920;2023-03-16T00:33:11;101116.47;;;-0.05;82.86
35577;BME280;21680;52.400;16.920;2023-03-16T00:35:37;101119.27;;;-0.06;82.95
35577;BME280;21680;52.400;16.920;2023-03-16T00:38:02;101119.45;;;-0.07;82.90
35577;BME280;21680;52.400;16.920;2023-03-16T00:40:28;101119.59;;;-0.09;82.93
35577;BME280;21680;52.400;16.920;2023-03-16T00:42:55;101119.58;;;-0.12;82.91
35577;BME280;21680;52.400;16.920;2023-03-16T00:45:20;101119.56;;;-0.14;82.94
35577;BME280;21680;52.400;16.920;2023-03-16T00:47:47;101119.55;;;-0.15;83.11
35577;BME280;21680;52.400;16.920;2023-03-16T00:50:13;101117.61;;;-0.16;83.16
35577;BME280;21680;52.400;16.920;2023-03-16T00:52:40;101116.20;;;-0.18;83.09
35577;BME280;21680;52.400;16.920;2023-03-16T00:55:07;101115.98;;;-0.22;83.05
35577;BME280;21680;52.400;16.920;2023-03-16T00:57:33;101116.48;;;-0.25;83.26
35577;BME280;21680;52.400;16.920;2023-03-16T00:59:58;101117.70;;;-0.26;83.22
35577;BME280;21680;52.400;16.920;2023-03-16T01:02:23;101118.05;;;-0.28;83.21
35577;BME280;21680;52.400;16.920;2023-03-16T01:04:50;101125.23;;;-0.28;83.32
35577;BME280;21680;52.400;16.920;2023-03-16T01:07:16;101133.49;;;-0.29;83.44
35577;BME280;21680;52.400;16.920;2023-03-16T01:09:42;101133.30;;;-0.30;83.47
35577;BME280;21680;52.400;16.920;2023-03-16T01:12:16;101137.67;;;-0.31;83.58
35577;BME280;21680;52.400;16.920;2023-03-16T01:14:42;101138.54;;;-0.34;83.64
35577;BME280;21680;52.400;16.920;2023-03-16T01:17:10;101140.63;;;-0.36;83.62
35577;BME280;21680;52.400;16.920;2023-03-16T01:19:38;101140.61;;;-0.37;83.78
35577;BME280;21680;52.400;16.920;2023-03-16T01:22:06;101144.12;;;-0.39;83.86
35577;BME280;21680;52.400;16.920;2023-03-16T01:24:33;101143.76;;;-0.40;83.87
35577;BME280;21680;52.400;16.920;2023-03-16T01:27:02;101147.06;;;-0.42;83.88
35577;BME280;21680;52.400;16.920;2023-03-16T01:29:29;101150.91;;;-0.45;84.08
35577;BME280;21680;52.400;16.920;2023-03-16T01:31:54;101153.36;;;-0.46;83.92
35577;BME280;21680;52.400;16.920;2023-03-16T01:34:20;101157.38;;;-0.48;83.93
35577;BME280;21680;52.400;16.920;2023-03-16T01:36:47;101162.78;;;-0.51;84.12
35577;BME280;21680;52.400;16.920;2023-03-16T01:39:13;101159.42;;;-0.53;84.27
35577;BME280;21680;52.400;16.920;2023-03-16T01:41:40;101161.89;;;-0.53;84.24
35577;BME280;21680;52.400;16.920;2023-03-16T01:44:10;101160.45;;;-0.55;84.46
35577;BME280;21680;52.400;16.920;2023-03-16T01:46:36;101164.83;;;-0.56;84.42
35577;BME280;21680;52.400;16.920;2023-03-16T01:52:06;101164.42;;;-0.61;84.73
35577;BME280;21680;52.400;16.920;2023-03-16T01:57:09;101164.91;;;-0.65;84.75
35577;BME280;21680;52.400;16.920;2023-03-16T01:59:46;101162.79;;;-0.68;84.81
35577;BME280;21680;52.400;16.920;2023-03-16T02:02:14;101161.36;;;-0.69;84.86
35577;BME280;21680;52.400;16.920;2023-03-16T02:05:03;101166.10;;;-0.69;84.87
35577;BME280;21680;52.400;16.920;2023-03-16T02:07:34;101172.61;;;-0.68;85.19
35577;BME280;21680;52.400;16.920;2023-03-16T02:10:03;101171.40;;;-0.66;85.02
35577;BME280;21680;52.400;16.920;2023-03-16T02:12:28;101173.02;;;-0.62;85.21
35577;BME280;21680;52.400;16.920;2023-03-16T02:14:54;101170.77;;;-0.59;85.12
35577;BME280;21680;52.400;16.920;2023-03-16T02:17:21;101173.43;;;-0.57;85.16
35577;BME280;21680;52.400;16.920;2023-03-16T02:22:52;101178.38;;;-0.53;85.55
35577;BME280;21680;52.400;16.920;2023-03-16T02:25:21;101172.77;;;-0.53;85.57
35577;BME280;21680;52.400;16.920;2023-03-16T02:28:00;101172.61;;;-0.51;85.68
35577;BME280;21680;52.400;16.920;2023-03-16T02:30:27;101178.08;;;-0.49;85.66
35577;BME280;21680;52.400;16.920;2023-03-16T02:32:53;101177.38;;;-0.48;85.79
35577;BME280;21680;52.400;16.920;2023-03-16T02:35:19;101184.60;;;-0.46;85.77
35577;BME280;21680;52.400;16.920;2023-03-16T02:37:45;101189.36;;;-0.45;85.95
35577;BME280;21680;52.400;16.920;2023-03-16T02:40:21;101186.72;;;-0.44;86.01
35577;BME280;21680;52.400;16.920;2023-03-16T02:43:01;101188.66;;;-0.44;86.00
35577;BME280;21680;52.400;16.920;2023-03-16T02:45:35;101189.18;;;-0.44;86.00
35577;BME280;21680;52.400;16.920;2023-03-16T02:48:07;101186.52;;;-0.47;85.98
35577;BME280;21680;52.400;16.920;2023-03-16T02:50:34;101190.02;;;-0.48;85.95
35577;BME280;21680;52.400;16.920;2023-03-16T02:52:59;101194.55;;;-0.51;86.09
35577;BME280;21680;52.400;16.920;2023-03-16T02:55:24;101193.83;;;-0.54;86.07
35577;BME280;21680;52.400;16.920;2023-03-16T02:57:50;101196.27;;;-0.56;85.97
35577;BME280;21680;52.400;16.920;2023-03-16T03:00:17;101194.66;;;-0.58;85.98
35577;BME280;21680;52.400;16.920;2023-03-16T03:02:44;101192.88;;;-0.59;86.08
35577;BME280;21680;52.400;16.920;2023-03-16T03:05:10;101195.85;;;-0.61;86.14
35577;BME280;21680;52.400;16.920;2023-03-16T03:07:36;101194.95;;;-0.62;86.09
35577;BME280;21680;52.400;16.920;2023-03-16T03:10:03;101199.52;;;-0.63;86.18
35577;BME280;21680;52.400;16.920;2023-03-16T03:12:31;101201.95;;;-0.64;86.18
35577;BME280;21680;52.400;16.920;2023-03-16T03:14:57;101199.50;;;-0.65;86.22
35577;BME280;21680;52.400;16.920;2023-03-16T03:17:23;101200.35;;;-0.67;86.19
35577;BME280;21680;52.400;16.920;2023-03-16T03:19:54;101198.92;;;-0.69;86.27
35577;BME280;21680;52.400;16.920;2023-03-16T03:22:19;101200.30;;;-0.71;86.14
35577;BME280;21680;52.400;16.920;2023-03-16T03:24:45;101200.45;;;-0.74;86.17
35577;BME280;21680;52.400;16.920;2023-03-16T03:27:10;101206.03;;;-0.77;86.14
35577;BME280;21680;52.400;16.920;2023-03-16T03:29:35;101210.22;;;-0.79;86.27
35577;BME280;21680;52.400;16.920;2023-03-16T03:32:02;101214.23;;;-0.81;86.11
35577;BME280;21680;52.400;16.920;2023-03-16T03:34:29;101217.70;;;-0.83;86.46
35577;BME280;21680;52.400;16.920;2023-03-16T03:36:56;101215.92;;;-0.85;86.47
35577;BME280;21680;52.400;16.920;2023-03-16T03:39:23;101219.59;;;-0.87;86.43
35577;BME280;21680;52.400;16.920;2023-03-16T03:41:48;101218.87;;;-0.88;86.44
35577;BME280;21680;52.400;16.920;2023-03-16T03:44:14;101216.89;;;-0.92;86.36
35577;BME280;21680;52.400;16.920;2023-03-16T03:46:40;101214.07;;;-0.93;86.56
35577;BME280;21680;52.400;16.920;2023-03-16T03:49:05;101217.56;;;-0.94;86.72
35577;BME280;21680;52.400;16.920;2023-03-16T03:51:31;101214.77;;;-0.93;86.63
35577;BME280;21680;52.400;16.920;2023-03-16T03:53:58;101213.55;;;-0.93;86.53
35577;BME280;21680;52.400;16.920;2023-03-16T03:56:24;101221.79;;;-0.93;86.43
35577;BME280;21680;52.400;16.920;2023-03-16T03:58:49;101219.32;;;-0.94;86.47
35577;BME280;21680;52.400;16.920;2023-03-16T04:01:15;101217.02;;;-0.96;86.56
35577;BME280;21680;52.400;16.920;2023-03-16T04:03:41;101220.87;;;-0.96;86.75
35577;BME280;21680;52.400;16.920;2023-03-16T04:06:07;101218.94;;;-0.97;86.58
35577;BME280;21680;52.400;16.920;2023-03-16T04:08:33;101221.91;;;-0.98;86.82
35577;BME280;21680;52.400;16.920;2023-03-16T04:10:58;101218.02;;;-1.00;86.69
35577;BME280;21680;52.400;16.920;2023-03-16T04:13:24;101221.84;;;-1.03;86.74
35577;BME280;21680;52.400;16.920;2023-03-16T04:15:55;101215.33;;;-1.05;86.75
35577;BME280;21680;52.400;16.920;2023-03-16T04:18:21;101220.39;;;-1.07;86.69
35577;BME280;21680;52.400;16.920;2023-03-16T04:20:46;101219.69;;;-1.07;86.84
35577;BME280;21680;52.400;16.920;2023-03-16T04:23:12;101220.54;;;-1.09;86.75
35577;BME280;21680;52.400;16.920;2023-03-16T04:25:38;101223.85;;;-1.11;86.78
35577;BME280;21680;52.400;16.920;2023-03-16T04:28:03;101227.69;;;-1.12;87.04
35577;BME280;21680;52.400;16.920;2023-03-16T04:30:29;101229.96;;;-1.12;86.89
35577;BME280;21680;52.400;16.920;2023-03-16T04:32:54;101231.17;;;-1.14;86.82
35577;BME280;21680;52.400;16.920;2023-03-16T04:35:20;101233.62;;;-1.15;86.86
35577;BME280;21680;52.400;16.920;2023-03-16T04:37:46;101236.20;;;-1.17;87.06
35577;BME280;21680;52.400;16.920;2023-03-16T04:40:12;101236.02;;;-1.18;87.10
35577;BME280;21680;52.400;16.920;2023-03-16T04:42:40;101236.36;;;-1.19;87.12
35577;BME280;21680;52.400;16.920;2023-03-16T04:45:06;101237.36;;;-1.22;87.02
35577;BME280;21680;52.400;16.920;2023-03-16T04:47:32;101239.77;;;-1.25;87.00
35577;BME280;21680;52.400;16.920;2023-03-16T04:50:00;101241.86;;;-1.26;86.96
35577;BME280;21680;52.400;16.920;2023-03-16T04:52:26;101245.33;;;-1.29;87.04
35577;BME280;21680;52.400;16.920;2023-03-16T04:54:52;101247.77;;;-1.31;87.07
35577;BME280;21680;52.400;16.920;2023-03-16T04:57:17;101245.12;;;-1.32;87.10
35577;BME280;21680;52.400;16.920;2023-03-16T04:59:43;101245.80;;;-1.33;87.21
35577;BME280;21680;52.400;16.920;2023-03-16T05:02:09;101249.29;;;-1.35;87.30
35577;BME280;21680;52.400;16.920;2023-03-16T05:04:34;101245.23;;;-1.36;87.10
35577;BME280;21680;52.400;16.920;2023-03-16T05:07:00;101250.30;;;-1.37;87.24
35577;BME280;21680;52.400;16.920;2023-03-16T05:09:25;101249.08;;;-1.37;87.41
35577;BME280;21680;52.400;16.920;2023-03-16T05:11:50;101253.62;;;-1.38;87.22
35577;BME280;21680;52.400;16.920;2023-03-16T05:14:16;101253.96;;;-1.38;87.43
35577;BME280;21680;52.400;16.920;2023-03-16T05:16:41;101250.10;;;-1.39;87.33
35577;BME280;21680;52.400;16.920;2023-03-16T05:19:06;101251.32;;;-1.39;87.31
35577;BME280;21680;52.400;16.920;2023-03-16T05:21:32;101255.33;;;-1.41;87.42
35577;BME280;21680;52.400;16.920;2023-03-16T05:23:58;101253.21;;;-1.41;87.40
35577;BME280;21680;52.400;16.920;2023-03-16T05:26:24;101260.07;;;-1.41;87.47
35577;BME280;21680;52.400;16.920;2023-03-16T05:28:50;101258.83;;;-1.41;87.61
35577;BME280;21680;52.400;16.920;2023-03-16T05:31:16;101258.13;;;-1.41;87.50
35577;BME280;21680;52.400;16.920;2023-03-16T05:33:42;101262.52;;;-1.40;87.77
35577;BME280;21680;52.400;16.920;2023-03-16T05:36:09;101265.52;;;-1.39;87.75
35577;BME280;21680;52.400;16.920;2023-03-16T05:38:35;101261.33;;;-1.38;87.71
35577;BME280;21680;52.400;16.920;2023-03-16T05:41:01;101262.94;;;-1.36;87.81
35577;BME280;21680;52.400;16.920;2023-03-16T05:43:29;101267.70;;;-1.34;87.85
35577;BME280;21680;52.400;16.920;2023-03-16T05:45:55;101267.38;;;-1.33;87.90
35577;BME280;21680;52.400;16.920;2023-03-16T05:48:22;101269.66;;;-1.32;87.83
35577;BME280;21680;52.400;16.920;2023-03-16T05:50:51;101272.15;;;-1.29;87.97
35577;BME280;21680;52.400;16.920;2023-03-16T05:53:17;101272.54;;;-1.27;87.72
35577;BME280;21680;52.400;16.920;2023-03-16T05:55:42;101276.95;;;-1.25;88.14
35577;BME280;21680;52.400;16.920;2023-03-16T05:58:08;101277.71;;;-1.21;88.18
35577;BME280;21680;52.400;16.920;2023-03-16T06:00:33;101272.67;;;-1.18;88.11
35577;BME280;21680;52.400;16.920;2023-03-16T06:02:58;101278.35;;;-1.14;88.26
35577;BME280;21680;52.400;16.920;2023-03-16T06:05:24;101280.14;;;-1.10;88.26
35577;BME280;21680;52.400;16.920;2023-03-16T06:07:50;101283.55;;;-1.06;88.22
35577;BME280;21680;52.400;16.920;2023-03-16T06:10:17;101280.95;;;-1.03;88.16
35577;BME280;21680;52.400;16.920;2023-03-16T06:12:42;101285.04;;;-0.99;88.12
35577;BME280;21680;52.400;16.920;2023-03-16T06:15:08;101283.84;;;-0.96;88.22
35577;BME280;21680;52.400;16.920;2023-03-16T06:17:35;101288.06;;;-0.95;88.26
35577;BME280;21680;52.400;16.920;2023-03-16T06:20:02;101287.23;;;-0.92;88.28
35577;BME280;21680;52.400;16.920;2023-03-16T06:22:29;101284.81;;;-0.90;88.24
35577;BME280;21680;52.400;16.920;2023-03-16T06:24:54;101286.97;;;-0.86;88.56
35577;BME280;21680;52.400;16.920;2023-03-16T06:27:20;101286.52;;;-0.81;88.39
35577;BME280;21680;52.400;16.920;2023-03-16T06:29:46;101282.52;;;-0.77;88.38
35577;BME280;21680;52.400;16.920;2023-03-16T06:32:13;101285.23;;;-0.72;88.40
35577;BME280;21680;52.400;16.920;2023-03-16T06:34:38;101285.98;;;-0.68;88.49
35577;BME280;21680;52.400;16.920;2023-03-16T06:37:05;101287.27;;;-0.62;88.58
35577;BME280;21680;52.400;16.920;2023-03-16T06:39:31;101288.55;;;-0.58;88.66
35577;BME280;21680;52.400;16.920;2023-03-16T06:41:57;101288.61;;;-0.53;88.62
35577;BME280;21680;52.400;16.920;2023-03-16T06:44:23;101287.97;;;-0.48;88.70
35577;BME280;21680;52.400;16.920;2023-03-16T06:46:48;101293.66;;;-0.43;88.71
35577;BME280;21680;52.400;16.920;2023-03-16T06:49:14;101295.50;;;-0.35;88.93
35577;BME280;21680;52.400;16.920;2023-03-16T06:51:39;101298.39;;;-0.27;88.95
35577;BME280;21680;52.400;16.920;2023-03-16T06:54:04;101292.50;;;-0.21;88.93
35577;BME280;21680;52.400;16.920;2023-03-16T06:56:29;101298.70;;;-0.16;88.93
35577;BME280;21680;52.400;16.920;2023-03-16T06:58:56;101301.77;;;-0.09;88.94
35577;BME280;21680;52.400;16.920;2023-03-16T07:01:21;101298.13;;;-0.04;88.95
35577;BME280;21680;52.400;16.920;2023-03-16T07:03:47;101307.65;;;0.03;88.95
35577;BME280;21680;52.400;16.920;2023-03-16T07:06:12;101312.80;;;0.09;89.01
35577;BME280;21680;52.400;16.920;2023-03-16T07:08:37;101313.04;;;0.15;88.99
35577;BME280;21680;52.400;16.920;2023-03-16T07:11:03;101312.20;;;0.20;89.04
35577;BME280;21680;52.400;16.920;2023-03-16T07:13:28;101307.16;;;0.25;88.87
35577;BME280;21680;52.400;16.920;2023-03-16T07:15:53;101315.13;;;0.32;89.01
35577;BME280;21680;52.400;16.920;2023-03-16T07:18:21;101316.06;;;0.38;88.96
35577;BME280;21680;52.400;16.920;2023-03-16T07:20:49;101316.48;;;0.45;89.00
35577;BME280;21680;52.400;16.920;2023-03-16T07:23:17;101319.15;;;0.49;88.82
35577;BME280;21680;52.400;16.920;2023-03-16T07:25:42;101317.96;;;0.55;88.76
35577;BME280;21680;52.400;16.920;2023-03-16T07:28:08;101320.99;;;0.59;88.79
35577;BME280;21680;52.400;16.920;2023-03-16T07:30:33;101320.85;;;0.64;88.79
35577;BME280;21680;52.400;16.920;2023-03-16T07:32:59;101328.66;;;0.73;88.87
35577;BME280;21680;52.400;16.920;2023-03-16T07:35:26;101330.86;;;0.85;88.76
35577;BME280;21680;52.400;16.920;2023-03-16T07:37:51;101330.55;;;0.91;88.60
35577;BME280;21680;52.400;16.920;2023-03-16T07:40:17;101333.78;;;0.99;88.66
35577;BME280;21680;52.400;16.920;2023-03-16T07:42:50;101332.77;;;1.06;88.54
35577;BME280;21680;52.400;16.920;2023-03-16T07:45:21;101333.52;;;1.13;88.38
35577;BME280;21680;52.400;16.920;2023-03-16T07:47:46;101335.14;;;1.21;88.47
35577;BME280;21680;52.400;16.920;2023-03-16T07:50:12;101335.73;;;1.30;88.37
35577;BME280;21680;52.400;16.920;2023-03-16T07:52:39;101336.48;;;1.42;88.33
35577;BME280;21680;52.400;16.920;2023-03-16T07:55:07;101343.59;;;1.53;88.18
35577;BME280;21680;52.400;16.920;2023-03-16T07:57:32;101342.76;;;1.62;88.00
35577;BME280;21680;52.400;16.920;2023-03-16T08:00:00;101347.36;;;1.71;87.58
35577;BME280;21680;52.400;16.920;2023-03-16T08:02:29;101344.05;;;1.78;87.23
35577;BME280;21680;52.400;16.920;2023-03-16T08:04:55;101343.02;;;1.85;87.26
35577;BME280;21680;52.400;16.920;2023-03-16T08:07:21;101347.98;;;1.95;87.05
35577;BME280;21680;52.400;16.920;2023-03-16T08:09:46;101349.07;;;2.05;86.56
35577;BME280;21680;52.400;16.920;2023-03-16T08:12:11;101348.56;;;2.13;86.39
35577;BME280;21680;52.400;16.920;2023-03-16T08:14:37;101358.80;;;2.22;86.43
35577;BME280;21680;52.400;16.920;2023-03-16T08:17:05;101353.88;;;2.30;85.66
35577;BME280;21680;52.400;16.920;2023-03-16T08:19:34;101362.89;;;2.36;85.44
35577;BME280;21680;52.400;16.920;2023-03-16T08:21:59;101364.13;;;2.42;84.87
35577;BME280;21680;52.400;16.920;2023-03-16T08:24:31;101360.77;;;2.43;84.65
35577;BME280;21680;52.400;16.920;2023-03-16T08:26:57;101365.55;;;2.46;84.39
35577;BME280;21680;52.400;16.920;2023-03-16T08:29:24;101365.20;;;2.56;84.32
35577;BME280;21680;52.400;16.920;2023-03-16T08:31:51;101360.59;;;2.72;84.61
35577;BME280;21680;52.400;16.920;2023-03-16T08:34:18;101367.83;;;2.87;83.82
35577;BME280;21680;52.400;16.920;2023-03-16T08:36:44;101364.30;;;2.99;83.81
35577;BME280;21680;52.400;16.920;2023-03-16T08:39:09;101361.63;;;3.08;83.24
35577;BME280;21680;52.400;16.920;2023-03-16T08:41:35;101362.50;;;3.15;83.03
35577;BME280;21680;52.400;16.920;2023-03-16T08:44:00;101360.89;;;3.26;83.09
35577;BME280;21680;52.400;16.920;2023-03-16T08:46:27;101366.88;;;3.34;82.91
35577;BME280;21680;52.400;16.920;2023-03-16T08:48:52;101367.41;;;3.36;82.58
35577;BME280;21680;52.400;16.920;2023-03-16T08:51:20;101373.58;;;3.40;82.26
35577;BME280;21680;52.400;16.920;2023-03-16T08:53:46;101376.94;;;3.42;82.22
35577;BME280;21680;52.400;16.920;2023-03-16T08:56:12;101382.41;;;3.42;81.50
35577;BME280;21680;52.400;16.920;2023-03-16T08:58:40;101382.60;;;3.37;81.17
35577;BME280;21680;52.400;16.920;2023-03-16T09:01:10;101383.83;;;3.40;81.43
35577;BME280;21680;52.400;16.920;2023-03-16T09:03:36;101383.81;;;3.44;81.42
35577;BME280;21680;52.400;16.920;2023-03-16T09:06:07;101379.38;;;3.50;80.76
35577;BME280;21680;52.400;16.920;2023-03-16T09:08:35;101384.84;;;3.56;80.56
35577;BME280;21680;52.400;16.920;2023-03-16T09:11:02;101388.91;;;3.56;79.75
35577;BME280;21680;52.400;16.920;2023-03-16T09:13:30;101390.50;;;3.58;79.98
35577;BME280;21680;52.400;16.920;2023-03-16T09:15:56;101391.73;;;3.62;79.96
35577;BME280;21680;52.400;16.920;2023-03-16T09:18:22;101393.83;;;3.68;79.93
35577;BME280;21680;52.400;16.920;2023-03-16T09:20:50;101397.69;;;3.75;80.00
35577;BME280;21680;52.400;16.920;2023-03-16T09:23:16;101397.85;;;3.81;79.69
35577;BME280;21680;52.400;16.920;2023-03-16T09:25:44;101398.55;;;3.83;79.43
35577;BME280;21680;52.400;16.920;2023-03-16T09:28:09;101394.81;;;3.88;79.45
35577;BME280;21680;52.400;16.920;2023-03-16T09:30:36;101398.63;;;4.03;79.52
35577;BME280;21680;52.400;16.920;2023-03-16T09:33:01;101395.27;;;4.02;78.96
35577;BME280;21680;52.400;16.920;2023-03-16T09:35:28;101402.21;;;3.93;77.99
35577;BME280;21680;52.400;16.920;2023-03-16T09:37:54;101401.02;;;3.81;77.92
35577;BME280;21680;52.400;16.920;2023-03-16T09:40:22;101405.11;;;3.78;77.97
35577;BME280;21680;52.400;16.920;2023-03-16T09:46:11;101408.98;;;3.81;77.44
35577;BME280;21680;52.400;16.920;2023-03-16T09:48:39;101405.10;;;3.79;77.59
35577;BME280;21680;52.400;16.920;2023-03-16T09:51:12;101406.13;;;3.86;78.04
35577;BME280;21680;52.400;16.920;2023-03-16T09:53:41;101403.05;;;4.03;78.27
35577;BME280;21680;52.400;16.920;2023-03-16T09:56:13;101409.73;;;4.13;78.21
35577;BME280;21680;52.400;16.920;2023-03-16T09:58:40;101411.80;;;4.25;78.29
35577;BME280;21680;52.400;16.920;2023-03-16T10:01:07;101407.23;;;4.20;77.97
35577;BME280;21680;52.400;16.920;2023-03-16T10:06:28;101414.61;;;3.91;77.21
35577;BME280;21680;52.400;16.920;2023-03-16T10:09:17;101417.44;;;3.91;77.02
35577;BME280;21680;52.400;16.920;2023-03-16T10:11:48;101415.69;;;3.84;76.73
35577;BME280;21680;52.400;16.920;2023-03-16T10:14:45;101419.23;;;3.83;76.73
35577;BME280;21680;52.400;16.920;2023-03-16T10:17:21;101419.01;;;3.95;76.90
35577;BME280;21680;52.400;16.920;2023-03-16T10:19:58;101421.94;;;4.11;77.24
35577;BME280;21680;52.400;16.920;2023-03-16T10:22:30;101424.66;;;4.33;76.61
35577;BME280;21680;52.400;16.920;2023-03-16T10:25:11;101432.00;;;4.50;76.19
35577;BME280;21680;52.400;16.920;2023-03-16T10:27:42;101422.08;;;4.53;76.32
35577;BME280;21680;52.400;16.920;2023-03-16T10:32:49;101416.07;;;4.51;74.34
35577;BME280;21680;52.400;16.920;2023-03-16T10:35:28;101418.20;;;4.49;74.64
35577;BME280;21680;52.400;16.920;2023-03-16T10:37:55;101415.26;;;4.67;74.93
35577;BME280;21680;52.400;16.920;2023-03-16T10:40:23;101419.09;;;4.75;74.69
35577;BME280;21680;52.400;16.920;2023-03-16T10:42:48;101417.67;;;4.76;74.65
35577;BME280;21680;52.400;16.920;2023-03-16T10:45:29;101416.23;;;4.79;74.54
35577;BME280;21680;52.400;16.920;2023-03-16T10:48:10;101417.14;;;4.77;73.64
35577;BME280;21680;52.400;16.920;2023-03-16T10:50:38;101418.22;;;4.74;73.22
35577;BME280;21680;52.400;16.920;2023-03-16T10:53:19;101428.13;;;4.74;72.96
35577;BME280;21680;52.400;16.920;2023-03-16T10:55:46;101420.68;;;4.75;71.81
35577;BME280;21680;52.400;16.920;2023-03-16T10:58:22;101415.61;;;4.90;72.21
35577;BME280;21680;52.400;16.920;2023-03-16T11:00:50;101413.52;;;5.07;71.66
35577;BME280;21680;52.400;16.920;2023-03-16T11:03:30;101408.85;;;5.15;71.52
35577;BME280;21680;52.400;16.920;2023-03-16T11:05:58;101410.87;;;5.23;70.79
35577;BME280;21680;52.400;16.920;2023-03-16T11:08:26;101416.78;;;5.19;69.70
35577;BME280;21680;52.400;16.920;2023-03-16T11:11:08;101411.13;;;5.18;69.90
35577;BME280;21680;52.400;16.920;2023-03-16T11:13:37;101411.95;;;5.23;69.96
35577;BME280;21680;52.400;16.920;2023-03-16T11:19:01;101404.27;;;5.47;69.79
35577;BME280;21680;52.400;16.920;2023-03-16T11:27:07;101419.95;;;5.38;67.97
35577;BME280;21680;52.400;16.920;2023-03-16T11:32:05;101418.48;;;5.24;67.82
35577;BME280;21680;52.400;16.920;2023-03-16T11:34:35;101414.91;;;5.11;66.49
35577;BME280;21680;52.400;16.920;2023-03-16T11:40:14;101414.48;;;5.00;67.35
35577;BME280;21680;52.400;16.920;2023-03-16T11:45:27;101422.77;;;5.05;66.56
35577;BME280;21680;52.400;16.920;2023-03-16T11:48:14;101412.84;;;5.05;67.02
35577;BME280;21680;52.400;16.920;2023-03-16T11:51:01;101414.05;;;5.24;67.19
35577;BME280;21680;52.400;16.920;2023-03-16T12:00:22;101411.30;;;6.02;66.36
35577;BME280;21680;52.400;16.920;2023-03-16T12:03:11;101415.14;;;5.91;64.82
35577;BME280;21680;52.400;16.920;2023-03-16T12:08:32;101408.52;;;6.24;66.08
35577;BME280;21680;52.400;16.920;2023-03-16T12:11:13;101408.10;;;6.54;66.01
35577;BME280;21680;52.400;16.920;2023-03-16T12:16:24;101404.55;;;6.89;64.80
35577;BME280;21680;52.400;16.920;2023-03-16T12:18:58;101405.39;;;6.80;64.65
35577;BME280;21680;52.400;16.920;2023-03-16T12:21:33;101408.31;;;6.75;64.14
35577;BME280;21680;52.400;16.920;2023-03-16T12:24:04;101398.98;;;6.81;64.94
35577;BME280;21680;52.400;16.920;2023-03-16T12:26:38;101395.65;;;7.00;64.60
35577;BME280;21680;52.400;16.920;2023-03-16T12:31:50;101403.63;;;7.02;62.97
35577;BME280;21680;52.400;16.920;2023-03-16T12:37:20;101395.39;;;7.25;63.50
35577;BME280;21680;52.400;16.920;2023-03-16T12:42:31;101394.53;;;7.80;63.03
35577;BME280;21680;52.400;16.920;2023-03-16T12:45:03;101394.45;;;7.91;61.57
35577;BME280;21680;52.400;16.920;2023-03-16T12:50:17;101398.69;;;7.59;61.78
35577;BME280;21680;52.400;16.920;2023-03-16T12:52:46;101396.17;;;7.61;61.80
35577;BME280;21680;52.400;16.920;2023-03-16T12:57:48;101394.73;;;7.53;61.21
35577;BME280;21680;52.400;16.920;2023-03-16T13:00:16;101394.10;;;7.66;61.78
35577;BME280;21680;52.400;16.920;2023-03-16T13:02:53;101389.55;;;7.71;61.10
35577;BME280;21680;52.400;16.920;2023-03-16T13:05:29;101391.41;;;7.84;59.92
35577;BME280;21680;52.400;16.920;2023-03-16T13:08:09;101389.75;;;8.29;61.62
35577;BME280;21680;52.400;16.920;2023-03-16T13:10:36;101396.67;;;8.62;59.60
35577;BME280;21680;52.400;16.920;2023-03-16T13:13:14;101401.02;;;8.26;58.80
35577;BME280;21680;52.400;16.920;2023-03-16T13:15:42;101398.86;;;8.19;58.79
35577;BME280;21680;52.400;16.920;2023-03-16T13:20:58;101403.46;;;8.11;57.31
35577;BME280;21680;52.400;16.920;2023-03-16T13:23:26;101400.40;;;8.63;58.04
35577;BME280;21680;52.400;16.920;2023-03-16T13:26:13;101394.29;;;9.22;58.88
35577;BME280;21680;52.400;16.920;2023-03-16T13:28:41;101391.09;;;10.00;59.31
35577;BME280;21680;52.400;16.920;2023-03-16T13:31:23;101392.60;;;10.51;59.45
35577;BME280;21680;52.400;16.920;2023-03-16T13:33:53;101397.67;;;10.87;58.19
35577;BME280;21680;52.400;16.920;2023-03-16T13:36:19;101398.44;;;10.81;57.67
35577;BME280;21680;52.400;16.920;2023-03-16T13:41:38;101393.90;;;10.71;55.99
35577;BME280;21680;52.400;16.920;2023-03-16T13:44:10;101397.63;;;10.78;55.87
35577;BME280;21680;52.400;16.920;2023-03-16T13:46:36;101402.14;;;10.76;54.95
35577;BME280;21680;52.400;16.920;2023-03-16T13:49:03;101396.90;;;10.72;54.76
35577;BME280;21680;52.400;16.920;2023-03-16T13:51:31;101394.66;;;10.70;53.30
35577;BME280;21680;52.400;16.920;2023-03-16T13:54:03;101399.98;;;10.72;53.73
35577;BME280;21680;52.400;16.920;2023-03-16T13:56:31;101395.94;;;10.86;53.78